sensor_id;sensor_type;location;lat;lon;timestamp;P1;durP1;ratioP1;P2;durP2;ratioP2
23565;SDS011;22140;48.988;8.544;2023-11-19T00:04:16;4.25;;;0.70;;
23565;SDS011;22140;48.988;8.544;2023-11-19T00:09:18;3.30;;;0.70;;
23565;SDS011;22140;48.988;8.544;2023-11-19T00:14:19;4.20;;;0.80;;
23565;SDS011;22140;48.988;8.544;2023-11-19T00:19:20;3.63;;;0.70;;
23565;SDS011;22140;48.988;8.544;2023-11-19T00:24:22;2.95;;;0.57;;
23565;SDS011;22140;48.988;8.544;2023-11-19T00:29:23;2.00;;;0.50;;
23565;SDS011;22140;48.988;8.544;2023-11-19T00:34:25;1.60;;;0.40;;
23565;SDS011;22140;48.988;8.544;2023-11-19T00:39:27;1.92;;;0.43;;
23565;SDS011;22140;48.988;8.544;2023-11-19T00:44:28;2.77;;;0.50;;
23565;SDS011;22140;48.988;8.544;2023-11-19T00:49:30;1.73;;;0.43;;
23565;SDS011;22140;48.988;8.544;2023-11-19T00:54:31;2.83;;;0.50;;
23565;SDS011;22140;48.988;8.544;2023-11-19T00:59:33;2.63;;;0.40;;
23565;SDS011;22140;48.988;8.544;2023-11-19T01:04:34;1.60;;;0.45;;
23565;SDS011;22140;48.988;8.544;2023-11-19T01:09:36;2.10;;;0.40;;
23565;SDS011;22140;48.988;8.544;2023-11-19T01:14:38;1.30;;;0.30;;
23565;SDS011;22140;48.988;8.544;2023-11-19T01:19:39;2.17;;;0.45;;
23565;SDS011;22140;48.988;8.544;2023-11-19T01:24:41;1.63;;;0.40;;
23565;SDS011;22140;48.988;8.544;2023-11-19T01:29:42;1.38;;;0.32;;
23565;SDS011;22140;48.988;8.544;2023-11-19T01:34:44;1.17;;;0.30;;
23565;SDS011;22140;48.988;8.544;2023-11-19T01:39:45;1.35;;;0.30;;
23565;SDS011;22140;48.988;8.544;2023-11-19T01:44:59;1.15;;;0.25;;
23565;SDS011;22140;48.988;8.544;2023-11-19T01:50:01;3.03;;;0.40;;
23565;SDS011;22140;48.988;8.544;2023-11-19T01:55:07;2.67;;;0.77;;
23565;SDS011;22140;48.988;8.544;2023-11-19T02:00:11;2.03;;;0.40;;
23565;SDS011;22140;48.988;8.544;2023-11-19T02:05:14;2.22;;;0.30;;
23565;SDS011;22140;48.988;8.544;2023-11-19T02:10:15;2.00;;;0.40;;
23565;SDS011;22140;48.988;8.544;2023-11-19T02:15:18;2.07;;;0.40;;
23565;SDS011;22140;48.988;8.544;2023-11-19T02:20:25;2.03;;;0.50;;
23565;SDS011;22140;48.988;8.544;2023-11-19T02:25:29;3.17;;;0.50;;
23565;SDS011;22140;48.988;8.544;2023-11-19T02:30:31;2.10;;;0.50;;
23565;SDS011;22140;48.988;8.544;2023-11-19T02:35:33;1.88;;;0.40;;
23565;SDS011;22140;48.988;8.544;2023-11-19T02:40:35;2.33;;;0.50;;
23565;SDS011;22140;48.988;8.544;2023-11-19T02:45:36;3.25;;;0.50;;
23565;SDS011;22140;48.988;8.544;2023-11-19T02:50:37;3.20;;;0.67;;
23565;SDS011;22140;48.988;8.544;2023-11-19T02:55:39;3.10;;;0.50;;
23565;SDS011;22140;48.988;8.544;2023-11-19T03:00:42;2.70;;;0.50;;
23565;SDS011;22140;48.988;8.544;2023-11-19T03:05:50;4.43;;;0.53;;
23565;SDS011;22140;48.988;8.544;2023-11-19T03:10:51;3.35;;;0.70;;
23565;SDS011;22140;48.988;8.544;2023-11-19T03:15:52;3.57;;;0.60;;
23565;SDS011;22140;48.988;8.544;2023-11-19T03:20:55;2.22;;;0.38;;
23565;SDS011;22140;48.988;8.544;2023-11-19T03:25:56;1.92;;;0.40;;
23565;SDS011;22140;48.988;8.544;2023-11-19T03:30:58;5.77;;;0.77;;
23565;SDS011;22140;48.988;8.544;2023-11-19T03:36:00;1.63;;;0.40;;
23565;SDS011;22140;48.988;8.544;2023-11-19T03:41:01;1.20;;;0.40;;
23565;SDS011;22140;48.988;8.544;2023-11-19T03:46:02;2.83;;;0.47;;
23565;SDS011;22140;48.988;8.544;2023-11-19T03:51:06;1.70;;;0.50;;
23565;SDS011;22140;48.988;8.544;2023-11-19T03:56:08;2.03;;;0.40;;
23565;SDS011;22140;48.988;8.544;2023-11-19T04:01:11;1.77;;;0.40;;
23565;SDS011;22140;48.988;8.544;2023-11-19T04:06:14;2.87;;;0.60;;
23565;SDS011;22140;48.988;8.544;2023-11-19T04:11:16;3.05;;;0.70;;
23565;SDS011;22140;48.988;8.544;2023-11-19T04:16:17;3.33;;;0.60;;
23565;SDS011;22140;48.988;8.544;2023-11-19T04:21:18;2.70;;;0.50;;
23565;SDS011;22140;48.988;8.544;2023-11-19T04:26:20;2.88;;;0.60;;
23565;SDS011;22140;48.988;8.544;2023-11-19T04:31:21;3.70;;;0.40;;
23565;SDS011;22140;48.988;8.544;2023-11-19T04:36:22;3.15;;;0.60;;
23565;SDS011;22140;48.988;8.544;2023-11-19T04:41:26;2.42;;;0.50;;
23565;SDS011;22140;48.988;8.544;2023-11-19T04:46:28;4.67;;;0.60;;
23565;SDS011;22140;48.988;8.544;2023-11-19T04:51:30;1.52;;;0.40;;
23565;SDS011;22140;48.988;8.544;2023-11-19T04:56:31;3.30;;;0.63;;
23565;SDS011;22140;48.988;8.544;2023-11-19T05:01:33;2.05;;;0.50;;
23565;SDS011;22140;48.988;8.544;2023-11-19T05:06:34;2.90;;;0.35;;
23565;SDS011;22140;48.988;8.544;2023-11-19T05:11:36;5.43;;;0.57;;
23565;SDS011;22140;48.988;8.544;2023-11-19T05:16:51;2.83;;;0.57;;
23565;SDS011;22140;48.988;8.544;2023-11-19T05:21:53;1.67;;;0.40;;
23565;SDS011;22140;48.988;8.544;2023-11-19T05:26:54;1.92;;;0.40;;
23565;SDS011;22140;48.988;8.544;2023-11-19T05:31:56;1.65;;;0.32;;
23565;SDS011;22140;48.988;8.544;2023-11-19T05:36:57;3.47;;;0.60;;
23565;SDS011;22140;48.988;8.544;2023-11-19T05:41:58;2.25;;;0.50;;
23565;SDS011;22140;48.988;8.544;2023-11-19T05:47:00;1.53;;;0.40;;
23565;SDS011;22140;48.988;8.544;2023-11-19T05:52:02;1.92;;;0.43;;
23565;SDS011;22140;48.988;8.544;2023-11-19T05:57:04;3.65;;;0.40;;
23565;SDS011;22140;48.988;8.544;2023-11-19T06:02:06;1.87;;;0.50;;
23565;SDS011;22140;48.988;8.544;2023-11-19T06:07:07;1.13;;;0.35;;
23565;SDS011;22140;48.988;8.544;2023-11-19T06:12:09;2.23;;;0.50;;
23565;SDS011;22140;48.988;8.544;2023-11-19T06:17:10;4.00;;;0.38;;
23565;SDS011;22140;48.988;8.544;2023-11-19T06:22:12;1.02;;;0.25;;
23565;SDS011;22140;48.988;8.544;2023-11-19T06:27:13;1.73;;;0.33;;
23565;SDS011;22140;48.988;8.544;2023-11-19T06:32:15;1.80;;;0.30;;
23565;SDS011;22140;48.988;8.544;2023-11-19T06:37:16;2.17;;;0.40;;
23565;SDS011;22140;48.988;8.544;2023-11-19T06:42:17;4.18;;;0.50;;
23565;SDS011;22140;48.988;8.544;2023-11-19T06:47:19;1.33;;;0.30;;
23565;SDS011;22140;48.988;8.544;2023-11-19T06:52:20;1.50;;;0.30;;
23565;SDS011;22140;48.988;8.544;2023-11-19T06:57:21;1.50;;;0.30;;
23565;SDS011;22140;48.988;8.544;2023-11-19T07:02:24;1.13;;;0.30;;
23565;SDS011;22140;48.988;8.544;2023-11-19T07:07:28;3.05;;;0.68;;
23565;SDS011;22140;48.988;8.544;2023-11-19T07:12:29;3.22;;;0.77;;
23565;SDS011;22140;48.988;8.544;2023-11-19T07:17:31;3.80;;;0.50;;
23565;SDS011;22140;48.988;8.544;2023-11-19T07:22:32;2.40;;;0.55;;
23565;SDS011;22140;48.988;8.544;2023-11-19T07:27:34;2.40;;;0.60;;
23565;SDS011;22140;48.988;8.544;2023-11-19T07:32:35;1.95;;;0.50;;
23565;SDS011;22140;48.988;8.544;2023-11-19T07:37:37;2.97;;;0.47;;
23565;SDS011;22140;48.988;8.544;2023-11-19T07:42:38;2.20;;;0.40;;
23565;SDS011;22140;48.988;8.544;2023-11-19T07:47:39;1.95;;;0.40;;
23565;SDS011;22140;48.988;8.544;2023-11-19T07:52:41;3.30;;;0.70;;
23565;SDS011;22140;48.988;8.544;2023-11-19T07:57:42;2.65;;;0.60;;
23565;SDS011;22140;48.988;8.544;2023-11-19T08:02:44;2.10;;;0.50;;
23565;SDS011;22140;48.988;8.544;2023-11-19T08:07:45;2.23;;;0.50;;
23565;SDS011;22140;48.988;8.544;2023-11-19T08:12:47;2.97;;;0.55;;
23565;SDS011;22140;48.988;8.544;2023-11-19T08:17:48;1.27;;;0.40;;
23565;SDS011;22140;48.988;8.544;2023-11-19T08:22:49;1.47;;;0.30;;
23565;SDS011;22140;48.988;8.544;2023-11-19T08:27:51;2.70;;;0.60;;
23565;SDS011;22140;48.988;8.544;2023-11-19T08:32:52;1.93;;;0.40;;
23565;SDS011;22140;48.988;8.544;2023-11-19T08:37:54;3.00;;;0.70;;
23565;SDS011;22140;48.988;8.544;2023-11-19T08:42:55;3.58;;;0.60;;
23565;SDS011;22140;48.988;8.544;2023-11-19T08:47:57;5.13;;;0.70;;
23565;SDS011;22140;48.988;8.544;2023-11-19T08:52:58;4.53;;;0.80;;
23565;SDS011;22140;48.988;8.544;2023-11-19T08:58:00;4.70;;;0.90;;
23565;SDS011;22140;48.988;8.544;2023-11-19T09:03:02;4.93;;;0.80;;
23565;SDS011;22140;48.988;8.544;2023-11-19T09:08:06;2.50;;;0.70;;
23565;SDS011;22140;48.988;8.544;2023-11-19T09:13:07;3.43;;;0.80;;
23565;SDS011;22140;48.988;8.544;2023-11-19T09:18:09;3.92;;;0.82;;
23565;SDS011;22140;48.988;8.544;2023-11-19T09:23:10;6.23;;;1.10;;
23565;SDS011;22140;48.988;8.544;2023-11-19T09:28:13;2.27;;;0.60;;
23565;SDS011;22140;48.988;8.544;2023-11-19T09:33:15;4.97;;;0.82;;
23565;SDS011;22140;48.988;8.544;2023-11-19T09:38:17;3.43;;;0.70;;
23565;SDS011;22140;48.988;8.544;2023-11-19T09:43:18;3.45;;;0.93;;
23565;SDS011;22140;48.988;8.544;2023-11-19T09:48:20;4.57;;;1.00;;
23565;SDS011;22140;48.988;8.544;2023-11-19T09:53:22;3.83;;;0.63;;
23565;SDS011;22140;48.988;8.544;2023-11-19T09:58:23;3.67;;;0.80;;
23565;SDS011;22140;48.988;8.544;2023-11-19T10:03:29;4.00;;;0.80;;
23565;SDS011;22140;48.988;8.544;2023-11-19T10:08:33;4.80;;;0.90;;
23565;SDS011;22140;48.988;8.544;2023-11-19T10:13:35;7.13;;;1.85;;
23565;SDS011;22140;48.988;8.544;2023-11-19T10:18:48;6.53;;;1.30;;
23565;SDS011;22140;48.988;8.544;2023-11-19T10:28:53;7.13;;;1.70;;
23565;SDS011;22140;48.988;8.544;2023-11-19T10:33:56;4.30;;;1.10;;
23565;SDS011;22140;48.988;8.544;2023-11-19T10:38:58;3.83;;;0.80;;
23565;SDS011;22140;48.988;8.544;2023-11-19T10:44:00;5.45;;;1.38;;
23565;SDS011;22140;48.988;8.544;2023-11-19T10:49:01;7.03;;;2.97;;
23565;SDS011;22140;48.988;8.544;2023-11-19T10:54:03;4.70;;;1.00;;
23565;SDS011;22140;48.988;8.544;2023-11-19T10:59:07;7.60;;;1.60;;
23565;SDS011;22140;48.988;8.544;2023-11-19T11:04:13;4.90;;;1.27;;
23565;SDS011;22140;48.988;8.544;2023-11-19T11:09:15;5.03;;;1.55;;
23565;SDS011;22140;48.988;8.544;2023-11-19T11:14:18;4.83;;;0.90;;
23565;SDS011;22140;48.988;8.544;2023-11-19T11:19:19;4.30;;;1.23;;
23565;SDS011;22140;48.988;8.544;2023-11-19T11:29:35;5.43;;;0.93;;
23565;SDS011;22140;48.988;8.544;2023-11-19T11:34:48;5.60;;;1.17;;
23565;SDS011;22140;48.988;8.544;2023-11-19T11:39:53;5.13;;;1.53;;
23565;SDS011;22140;48.988;8.544;2023-11-19T11:50:06;7.15;;;1.48;;
23565;SDS011;22140;48.988;8.544;2023-11-19T11:55:10;5.00;;;1.00;;
23565;SDS011;22140;48.988;8.544;2023-11-19T12:00:12;4.97;;;1.00;;
23565;SDS011;22140;48.988;8.544;2023-11-19T12:05:23;4.60;;;0.80;;
23565;SDS011;22140;48.988;8.544;2023-11-19T12:10:24;4.87;;;1.17;;
23565;SDS011;22140;48.988;8.544;2023-11-19T12:15:28;5.57;;;1.00;;
23565;SDS011;22140;48.988;8.544;2023-11-19T12:20:29;4.63;;;1.23;;
23565;SDS011;22140;48.988;8.544;2023-11-19T12:25:36;5.20;;;1.30;;
23565;SDS011;22140;48.988;8.544;2023-11-19T12:30:37;5.40;;;1.13;;
23565;SDS011;22140;48.988;8.544;2023-11-19T12:35:39;5.00;;;0.93;;
23565;SDS011;22140;48.988;8.544;2023-11-19T12:40:40;7.40;;;1.20;;
23565;SDS011;22140;48.988;8.544;2023-11-19T12:45:42;3.80;;;0.80;;
23565;SDS011;22140;48.988;8.544;2023-11-19T12:55:54;6.33;;;1.10;;
23565;SDS011;22140;48.988;8.544;2023-11-19T13:01:05;4.10;;;1.00;;
23565;SDS011;22140;48.988;8.544;2023-11-19T13:11:09;5.03;;;1.00;;
23565;SDS011;22140;48.988;8.544;2023-11-19T13:16:11;4.68;;;1.00;;
23565;SDS011;22140;48.988;8.544;2023-11-19T13:21:13;4.37;;;1.00;;
23565;SDS011;22140;48.988;8.544;2023-11-19T13:26:14;5.40;;;0.98;;
23565;SDS011;22140;48.988;8.544;2023-11-19T13:31:15;5.85;;;1.33;;
23565;SDS011;22140;48.988;8.544;2023-11-19T13:36:17;6.60;;;0.90;;
23565;SDS011;22140;48.988;8.544;2023-11-19T13:41:19;3.00;;;0.70;;
23565;SDS011;22140;48.988;8.544;2023-11-19T13:46:21;4.40;;;0.93;;
23565;SDS011;22140;48.988;8.544;2023-11-19T13:51:22;5.17;;;0.90;;
23565;SDS011;22140;48.988;8.544;2023-11-19T13:56:24;5.65;;;1.10;;
23565;SDS011;22140;48.988;8.544;2023-11-19T14:01:25;5.67;;;1.20;;
23565;SDS011;22140;48.988;8.544;2023-11-19T14:06:27;5.43;;;1.27;;
23565;SDS011;22140;48.988;8.544;2023-11-19T14:11:28;5.13;;;1.00;;
23565;SDS011;22140;48.988;8.544;2023-11-19T14:16:29;5.73;;;1.00;;
23565;SDS011;22140;48.988;8.544;2023-11-19T14:21:31;9.02;;;1.50;;
23565;SDS011;22140;48.988;8.544;2023-11-19T14:26:32;5.00;;;1.10;;
23565;SDS011;22140;48.988;8.544;2023-11-19T14:31:34;6.53;;;1.40;;
23565;SDS011;22140;48.988;8.544;2023-11-19T14:36:36;4.40;;;1.00;;
23565;SDS011;22140;48.988;8.544;2023-11-19T14:41:37;6.10;;;1.47;;
23565;SDS011;22140;48.988;8.544;2023-11-19T14:46:40;6.30;;;1.60;;
23565;SDS011;22140;48.988;8.544;2023-11-19T14:51:41;7.45;;;1.52;;
23565;SDS011;22140;48.988;8.544;2023-11-19T14:56:43;9.23;;;2.40;;
23565;SDS011;22140;48.988;8.544;2023-11-19T15:01:44;6.55;;;1.80;;
23565;SDS011;22140;48.988;8.544;2023-11-19T15:06:46;10.32;;;2.72;;
23565;SDS011;22140;48.988;8.544;2023-11-19T15:11:47;8.43;;;2.37;;
23565;SDS011;22140;48.988;8.544;2023-11-19T15:16:49;6.85;;;1.50;;
23565;SDS011;22140;48.988;8.544;2023-11-19T15:21:52;6.97;;;1.88;;
23565;SDS011;22140;48.988;8.544;2023-11-19T15:26:56;5.67;;;1.53;;
23565;SDS011;22140;48.988;8.544;2023-11-19T15:32:14;6.50;;;1.70;;
23565;SDS011;22140;48.988;8.544;2023-11-19T15:37:16;5.97;;;1.60;;
23565;SDS011;22140;48.988;8.544;2023-11-19T15:42:17;6.13;;;1.27;;
23565;SDS011;22140;48.988;8.544;2023-11-19T15:47:18;4.00;;;1.00;;
23565;SDS011;22140;48.988;8.544;2023-11-19T15:52:20;8.47;;;1.90;;
23565;SDS011;22140;48.988;8.544;2023-11-19T15:57:21;7.23;;;1.50;;
23565;SDS011;22140;48.988;8.544;2023-11-19T16:02:23;5.40;;;1.50;;
23565;SDS011;22140;48.988;8.544;2023-11-19T16:07:24;10.30;;;2.20;;
23565;SDS011;22140;48.988;8.544;2023-11-19T16:12:26;5.97;;;1.27;;
23565;SDS011;22140;48.988;8.544;2023-11-19T16:17:27;8.25;;;1.30;;
23565;SDS011;22140;48.988;8.544;2023-11-19T16:22:30;4.87;;;1.47;;
23565;SDS011;22140;48.988;8.544;2023-11-19T16:27:32;9.00;;;3.50;;
23565;SDS011;22140;48.988;8.544;2023-11-19T16:32:34;5.75;;;1.30;;
23565;SDS011;22140;48.988;8.544;2023-11-19T16:37:45;5.00;;;1.00;;
23565;SDS011;22140;48.988;8.544;2023-11-19T16:42:46;3.80;;;0.80;;
23565;SDS011;22140;48.988;8.544;2023-11-19T16:47:48;5.45;;;1.00;;
23565;SDS011;22140;48.988;8.544;2023-11-19T16:52:50;7.87;;;1.20;;
23565;SDS011;22140;48.988;8.544;2023-11-19T16:57:51;6.28;;;1.20;;
23565;SDS011;22140;48.988;8.544;2023-11-19T17:02:53;4.13;;;0.90;;
23565;SDS011;22140;48.988;8.544;2023-11-19T17:07:54;4.97;;;1.30;;
23565;SDS011;22140;48.988;8.544;2023-11-19T17:12:55;5.53;;;1.13;;
23565;SDS011;22140;48.988;8.544;2023-11-19T17:17:57;5.20;;;1.50;;
23565;SDS011;22140;48.988;8.544;2023-11-19T17:22:59;10.75;;;3.00;;
23565;SDS011;22140;48.988;8.544;2023-11-19T17:28:02;6.45;;;1.80;;
23565;SDS011;22140;48.988;8.544;2023-11-19T17:33:08;5.93;;;2.20;;
23565;SDS011;22140;48.988;8.544;2023-11-19T17:38:10;7.38;;;1.50;;
23565;SDS011;22140;48.988;8.544;2023-11-19T17:43:15;5.53;;;1.23;;
23565;SDS011;22140;48.988;8.544;2023-11-19T17:48:16;6.50;;;1.30;;
23565;SDS011;22140;48.988;8.544;2023-11-19T17:53:18;6.30;;;1.55;;
23565;SDS011;22140;48.988;8.544;2023-11-19T17:58:20;5.33;;;1.27;;
23565;SDS011;22140;48.988;8.544;2023-11-19T18:03:22;5.70;;;1.13;;
23565;SDS011;22140;48.988;8.544;2023-11-19T18:08:24;5.97;;;1.35;;
23565;SDS011;22140;48.988;8.544;2023-11-19T18:13:25;6.63;;;2.20;;
23565;SDS011;22140;48.988;8.544;2023-11-19T18:18:27;7.47;;;1.80;;
23565;SDS011;22140;48.988;8.544;2023-11-19T18:23:28;7.57;;;2.05;;
23565;SDS011;22140;48.988;8.544;2023-11-19T18:28:30;7.17;;;1.83;;
23565;SDS011;22140;48.988;8.544;2023-11-19T18:33:31;6.47;;;1.75;;
23565;SDS011;22140;48.988;8.544;2023-11-19T18:38:32;8.53;;;1.77;;
23565;SDS011;22140;48.988;8.544;2023-11-19T18:43:37;7.87;;;1.27;;
23565;SDS011;22140;48.988;8.544;2023-11-19T18:48:38;8.40;;;2.00;;
23565;SDS011;22140;48.988;8.544;2023-11-19T18:53:40;9.07;;;1.50;;
23565;SDS011;22140;48.988;8.544;2023-11-19T18:58:45;11.40;;;3.60;;
23565;SDS011;22140;48.988;8.544;2023-11-19T19:03:47;8.82;;;1.75;;
23565;SDS011;22140;48.988;8.544;2023-11-19T19:08:49;9.00;;;1.53;;
23565;SDS011;22140;48.988;8.544;2023-11-19T19:13:51;9.18;;;1.65;;
23565;SDS011;22140;48.988;8.544;2023-11-19T19:18:53;5.28;;;1.00;;
23565;SDS011;22140;48.988;8.544;2023-11-19T19:23:56;9.67;;;1.70;;
23565;SDS011;22140;48.988;8.544;2023-11-19T19:28:57;10.30;;;1.88;;
23565;SDS011;22140;48.988;8.544;2023-11-19T19:33:59;10.17;;;2.70;;
23565;SDS011;22140;48.988;8.544;2023-11-19T19:39:01;11.23;;;1.40;;
23565;SDS011;22140;48.988;8.544;2023-11-19T19:44:04;10.05;;;1.52;;
23565;SDS011;22140;48.988;8.544;2023-11-19T19:49:05;10.97;;;1.63;;
23565;SDS011;22140;48.988;8.544;2023-11-19T19:54:09;11.23;;;1.95;;
23565;SDS011;22140;48.988;8.544;2023-11-19T19:59:11;8.30;;;1.65;;
23565;SDS011;22140;48.988;8.544;2023-11-19T20:04:13;9.80;;;1.87;;
23565;SDS011;22140;48.988;8.544;2023-11-19T20:09:14;10.82;;;1.95;;
23565;SDS011;22140;48.988;8.544;2023-11-19T20:14:16;8.50;;;2.00;;
23565;SDS011;22140;48.988;8.544;2023-11-19T20:19:17;11.30;;;1.77;;
23565;SDS011;22140;48.988;8.544;2023-11-19T20:24:19;13.60;;;2.03;;
23565;SDS011;22140;48.988;8.544;2023-11-19T20:29:20;10.90;;;1.73;;
23565;SDS011;22140;48.988;8.544;2023-11-19T20:34:21;12.40;;;1.90;;
23565;SDS011;22140;48.988;8.544;2023-11-19T20:39:23;12.48;;;1.85;;
23565;SDS011;22140;48.988;8.544;2023-11-19T20:44:26;8.03;;;1.80;;
23565;SDS011;22140;48.988;8.544;2023-11-19T20:49:30;9.18;;;1.90;;
23565;SDS011;22140;48.988;8.544;2023-11-19T20:54:31;10.83;;;2.00;;
23565;SDS011;22140;48.988;8.544;2023-11-19T20:59:36;11.32;;;2.20;;
23565;SDS011;22140;48.988;8.544;2023-11-19T21:04:37;11.15;;;1.77;;
23565;SDS011;22140;48.988;8.544;2023-11-19T21:09:39;13.13;;;2.43;;
23565;SDS011;22140;48.988;8.544;2023-11-19T21:14:40;12.70;;;1.80;;
23565;SDS011;22140;48.988;8.544;2023-11-19T21:19:42;13.67;;;1.97;;
23565;SDS011;22140;48.988;8.544;2023-11-19T21:24:47;27.17;;;2.80;;
23565;SDS011;22140;48.988;8.544;2023-11-19T21:29:50;12.10;;;1.92;;
23565;SDS011;22140;48.988;8.544;2023-11-19T21:34:51;12.77;;;2.00;;
23565;SDS011;22140;48.988;8.544;2023-11-19T21:39:52;11.07;;;1.70;;
23565;SDS011;22140;48.988;8.544;2023-11-19T21:44:54;11.93;;;1.90;;
23565;SDS011;22140;48.988;8.544;2023-11-19T21:49:55;9.50;;;1.70;;
23565;SDS011;22140;48.988;8.544;2023-11-19T21:54:57;11.90;;;2.28;;
23565;SDS011;22140;48.988;8.544;2023-11-19T21:59:58;13.37;;;2.03;;
23565;SDS011;22140;48.988;8.544;2023-11-19T22:04:59;10.07;;;1.83;;
23565;SDS011;22140;48.988;8.544;2023-11-19T22:10:01;12.80;;;1.70;;
23565;SDS011;22140;48.988;8.544;2023-11-19T22:15:04;12.10;;;1.98;;
23565;SDS011;22140;48.988;8.544;2023-11-19T22:20:06;17.60;;;2.25;;
23565;SDS011;22140;48.988;8.544;2023-11-19T22:25:25;12.53;;;2.10;;
23565;SDS011;22140;48.988;8.544;2023-11-19T22:30:27;13.43;;;2.17;;
23565;SDS011;22140;48.988;8.544;2023-11-19T22:35:29;13.07;;;1.60;;
23565;SDS011;22140;48.988;8.544;2023-11-19T22:40:30;8.83;;;1.40;;
23565;SDS011;22140;48.988;8.544;2023-11-19T22:45:32;14.27;;;2.10;;
23565;SDS011;22140;48.988;8.544;2023-11-19T22:50:33;18.00;;;2.50;;
23565;SDS011;22140;48.988;8.544;2023-11-19T22:55:34;14.55;;;1.85;;
23565;SDS011;22140;48.988;8.544;2023-11-19T23:00:36;15.48;;;1.67;;
23565;SDS011;22140;48.988;8.544;2023-11-19T23:05:38;13.13;;;2.00;;
23565;SDS011;22140;48.988;8.544;2023-11-19T23:10:39;13.45;;;1.95;;
23565;SDS011;22140;48.988;8.544;2023-11-19T23:15:41;13.33;;;1.77;;
23565;SDS011;22140;48.988;8.544;2023-11-19T23:20:43;11.73;;;1.83;;
23565;SDS011;22140;48.988;8.544;2023-11-19T23:25:44;14.38;;;2.17;;
23565;SDS011;22140;48.988;8.544;2023-11-19T23:30:46;10.23;;;1.70;;
23565;SDS011;22140;48.988;8.544;2023-11-19T23:35:47;13.13;;;1.52;;
23565;SDS011;22140;48.988;8.544;2023-11-19T23:40:48;13.93;;;1.87;;
23565;SDS011;22140;48.988;8.544;2023-11-19T23:45:50;14.32;;;1.70;;
23565;SDS011;22140;48.988;8.544;2023-11-19T23:50:52;12.30;;;1.73;;
23565;SDS011;22140;48.988;8.544;2023-11-19T23:55:58;15.20;;;2.43;;
